Portada
METAR-TAF:

METAR-TAF

Aeropuertos :

Aeropuerto de Svalbard

Longyearbyen, Noruega

latitud: 78-15N, longitud: 015-28E, altitud: 2 m

Observación

El informe se hizo hace 5 minutos, a las 14:20 UTC
Viento 2 kt con dirección variable
Temperatura -19°C
Humedad 77%
Presión 1009 hPa
Visibilidad 10 km o más
Escasas nubes a una altura de 3000 ft

METAR: ENSB 171420Z VRB02KT 9999 FEW030 M19/M22 Q1009 NOSIG RMK WIND 1400FT 34005KT

Hora: 15:25 (14:25 UTC)

Pronóstico

Pronóstico válido del 17 a las 12 UTC al 18 a las 12 UTC
Viento 8 kt del este-sureste
Visibilidad 10 km o más
Nubes dispersas a una altura de 2000 ft
Temporalmente
del 17 a las 18 UTC al 17 a las 21 UTC
Viento 10 kt del oeste-suroeste
Evolucionando progresivamente
del 18 a las 04 UTC al 18 a las 07 UTC
Viento 12 kt del oeste-suroeste

TAF: ENSB 1712/1812 12008KT 9999 SCT020 TEMPO 1718/1721 25010KT BECMG 1804/1807 25012KT

Observaciones y pronósticos meteorológicos de más de 4000 aeropuertos (mensajes METAR y TAF).

Los puntos amarillos y rojos representan las estaciones disponibles.

Ponga el ratón en el punto deseado para ver el nombre de la estación.

Haga clic para ver las observaciones y los pronósticos meteorológicos.

Para cambiar el mapa : haga clic en los botones verdes con una cruz de color negro para hacer un zoom, en el botón verde con un guión para alejar o en las flechas verdes para mapas adyacentes.


METAR-TAF: